Warroad, MN

10:29 PM CDT on June 26, 2017 (GMT -0500)
Warroad International-Carlson

Weather History for KRRT - March, 2014

Change the Weather History Date:

Thursday, March 27, 2014

  Actual Average Record
Temperature  
Mean Temperature 24 °F -  
Max Temperature 33 °F 38 °F 58 °F (1977)
Min Temperature 15 °F 19 °F -16 °F (1964)
Degree Days  
Heating Degree Days 41    
Moisture  
Dew Point 16 °F    
Average Humidity 72    
Maximum Humidity 93    
Minimum Humidity 44    
Precipitation  
Precipitation 0.00 in - - ()
Sea Level Pressure  
Sea Level Pressure 29.75 in    
Wind  
Wind Speed 10 mph (NNE)    
Max Wind Speed 15 mph    
Max Gust Speed 21 mph    
Visibility 10 miles    
Events Snow    
Averages and records for this station are not official NWS values.
T = Trace of Precipitation, MM = Missing Value Source: NWS Daily Summary

Daily Weather History Graph

Daily Weather History Graph

Search for Another Location

Airport or City:

Trip Planner

Search our weather history database for the weather conditions in past years. The results will help you decide how hot, cold, wet, or windy it might be!

Date:

Astronomy

Mar. 27, 2014 Rise Set
Actual Time 7:09 AM CDT 7:44 PM CDT
Civil Twilight 6:37 AM CDT 8:16 PM CDT
Nautical Twilight 5:59 AM CDT 8:54 PM CDT
Astronomical Twilight 5:20 AM CDT 9:34 PM CDT
Moon 5:18 AM CDT 4:19 PM CDT
Length of Visible Light 13h 39m
Length of Day
12h 35m
Waning Crescent, 13% of the Moon is Illuminated
Mar 27
Waning Crescent
Mar 30
New
Apr 7
First Quarter
Apr 15
Full
Apr 22
Last Quarter

Hourly Weather History & Observations

Time (CDT) Temp. Windchill Dew Point Humidity Pressure Visibility Wind Dir Wind Speed Gust Speed Precip Events Conditions
12:14 AM 23.0 °F 12.4 °F 19.4 °F 86% 29.68 in 5.0 mi ENE 10.4 mph - N/A Snow Light Snow
12:34 AM 23.0 °F 13.9 °F 19.4 °F 86% 29.68 in 7.0 mi NE 8.1 mph - N/A   Overcast
12:47 AM 23.0 °F 13.1 °F 19.4 °F 86% 29.68 in 7.0 mi NE 9.2 mph - N/A   Overcast
1:08 AM 21.2 °F - 19.4 °F 93% 29.67 in 10.0 mi North - - N/A   Overcast
1:27 AM 21.2 °F 10.1 °F 17.6 °F 86% 29.67 in 10.0 mi NE 10.4 mph - N/A   Overcast
1:54 AM 23.0 °F 13.1 °F 19.4 °F 86% 29.66 in 10.0 mi NE 9.2 mph - N/A   Overcast
2:14 AM 23.0 °F 12.4 °F 19.4 °F 86% 29.66 in 10.0 mi NNE 10.4 mph 17.3 mph N/A   Overcast
2:34 AM 23.0 °F 12.4 °F 19.4 °F 86% 29.66 in 10.0 mi NNE 10.4 mph 16.1 mph N/A   Overcast
2:54 AM 23.0 °F 12.4 °F 19.4 °F 86% 29.66 in 10.0 mi NNE 10.4 mph - N/A   Overcast
3:14 AM 23.0 °F 12.4 °F 19.4 °F 86% 29.66 in 10.0 mi NE 10.4 mph - N/A   Overcast
3:34 AM 23.0 °F 13.1 °F 19.4 °F 86% 29.66 in 10.0 mi NNE 9.2 mph - N/A   Overcast
3:54 AM 23.0 °F 12.4 °F 19.4 °F 86% 29.66 in 10.0 mi NNE 10.4 mph - N/A   Overcast
4:14 AM 23.0 °F 13.1 °F 19.4 °F 86% 29.66 in 10.0 mi NNE 9.2 mph - N/A   Overcast
4:34 AM 21.2 °F 10.9 °F 17.6 °F 86% 29.67 in 10.0 mi NNE 9.2 mph - N/A   Overcast
4:54 AM 21.2 °F 10.9 °F 17.6 °F 86% 29.67 in 10.0 mi North 9.2 mph - N/A   Overcast
5:14 AM 21.2 °F 10.1 °F 17.6 °F 86% 29.68 in 10.0 mi NNE 10.4 mph - N/A   Overcast
5:34 AM 21.2 °F 9.5 °F 17.6 °F 86% 29.69 in 10.0 mi NNE 11.5 mph - N/A   Overcast
5:54 AM 21.2 °F 10.1 °F 17.6 °F 86% 29.69 in 10.0 mi NNE 10.4 mph 17.3 mph N/A   Overcast
6:14 AM 21.2 °F 10.9 °F 17.6 °F 86% 29.70 in 10.0 mi North 9.2 mph - N/A   Mostly Cloudy
6:34 AM 21.2 °F 10.9 °F 17.6 °F 86% 29.71 in 10.0 mi North 9.2 mph - N/A   Mostly Cloudy
6:53 AM 19.4 °F 7.2 °F 15.8 °F 86% 29.71 in 10.0 mi North 11.5 mph - N/A   Scattered Clouds
7:14 AM 19.4 °F 8.6 °F 15.8 °F 86% 29.72 in 10.0 mi North 9.2 mph 16.1 mph N/A   Mostly Cloudy
7:34 AM 19.4 °F 7.9 °F 15.8 °F 86% 2.97 in 10.0 mi North 10.4 mph - N/A   Scattered Clouds
7:54 AM 19.4 °F 7.9 °F 15.8 °F 86% 29.72 in 10.0 mi North 10.4 mph - N/A   Clear
8:14 AM 19.4 °F 8.6 °F 15.8 °F 86% 29.73 in 10.0 mi North 9.2 mph - N/A   Clear
8:34 AM 19.4 °F 7.2 °F 15.8 °F 86% 29.73 in 10.0 mi North 11.5 mph - N/A   Clear
8:54 AM 19.4 °F 9.5 °F 15.8 °F 86% 29.74 in 10.0 mi North 8.1 mph - N/A   Clear
9:14 AM 19.4 °F 7.2 °F 15.8 °F 86% 29.74 in 10.0 mi North 11.5 mph 16.1 mph N/A   Clear
9:34 AM 21.2 °F 9.5 °F 17.6 °F 86% 29.74 in 10.0 mi North 11.5 mph - N/A   Mostly Cloudy
9:54 AM 21.2 °F 9.5 °F 17.6 °F 86% 29.75 in 10.0 mi North 11.5 mph - N/A   Overcast
10:14 AM 23.0 °F 12.4 °F 17.6 °F 80% 29.75 in 10.0 mi North 10.4 mph - N/A   Mostly Cloudy
10:34 AM 24.8 °F 13.4 °F 17.6 °F 74% 29.75 in 10.0 mi NNE 12.7 mph - N/A   Scattered Clouds
10:53 AM 24.8 °F 14.0 °F 19.4 °F 80% 29.75 in 10.0 mi North 11.5 mph - N/A   Clear
11:14 AM 26.6 °F 16.2 °F 19.4 °F 74% 29.75 in 10.0 mi NNE 11.5 mph - N/A   Clear
11:34 AM 26.6 °F 16.2 °F 19.4 °F 74% 29.76 in 10.0 mi NNE 11.5 mph - N/A   Scattered Clouds
11:53 AM 26.6 °F 17.5 °F 19.4 °F 74% 29.76 in 10.0 mi NNE 9.2 mph - N/A   Scattered Clouds
12:14 PM 28.4 °F 19.7 °F 19.4 °F 69% 29.76 in 10.0 mi NE 9.2 mph - N/A   Mostly Cloudy
12:34 PM 28.4 °F 18.5 °F 19.4 °F 69% 29.76 in 10.0 mi NE 11.5 mph - N/A   Scattered Clouds
12:54 PM 28.4 °F 18.5 °F 19.4 °F 69% 29.76 in 10.0 mi ENE 11.5 mph - N/A   Clear
1:14 PM 28.4 °F 17.5 °F 19.4 °F 69% 29.76 in 10.0 mi ENE 13.8 mph - N/A   Clear
1:34 PM 28.4 °F 19.1 °F 19.4 °F 69% 29.76 in 10.0 mi ENE 10.4 mph - N/A   Clear
1:54 PM 28.4 °F 18.0 °F 19.4 °F 69% 29.76 in 10.0 mi ENE 12.7 mph - N/A   Clear
2:14 PM 28.4 °F 18.5 °F 19.4 °F 69% 29.76 in 10.0 mi ENE 11.5 mph - N/A   Clear
2:34 PM 30.2 °F 20.8 °F 19.4 °F 64% 29.76 in 10.0 mi ENE 11.5 mph - N/A   Clear
2:54 PM 30.2 °F 21.3 °F 17.6 °F 60% 29.76 in 10.0 mi ENE 10.4 mph - N/A   Clear
3:14 PM 30.2 °F 21.9 °F 17.6 °F 60% 29.76 in 10.0 mi ENE 9.2 mph - N/A   Clear
3:34 PM 33.8 °F 25.8 °F 15.8 °F 48% 29.76 in 10.0 mi NE 10.4 mph 16.1 mph N/A   Clear
3:54 PM 32.0 °F 23.6 °F 19.4 °F 60% 29.76 in 10.0 mi ENE 10.4 mph - N/A   Clear
4:14 PM 30.2 °F 21.9 °F 19.4 °F 64% 29.76 in 10.0 mi ENE 9.2 mph - N/A   Clear
4:33 PM 30.2 °F 21.9 °F 19.4 °F 64% 29.76 in 10.0 mi ENE 9.2 mph - N/A   Clear
4:54 PM 30.2 °F 21.3 °F 17.6 °F 60% 29.76 in 10.0 mi ENE 10.4 mph - N/A   Clear
5:14 PM 30.2 °F 21.3 °F 17.6 °F 60% 29.76 in 10.0 mi ENE 10.4 mph - N/A   Clear
5:34 PM 30.2 °F 21.9 °F 17.6 °F 60% 29.77 in 10.0 mi ENE 9.2 mph - N/A   Clear
5:54 PM 30.2 °F 21.9 °F 17.6 °F 60% 29.77 in 10.0 mi ENE 9.2 mph - N/A   Clear
6:14 PM 30.2 °F 22.6 °F 15.8 °F 55% 29.77 in 10.0 mi ENE 8.1 mph - N/A   Clear
6:34 PM 30.2 °F 26.7 °F 15.8 °F 55% 29.78 in 10.0 mi NE 3.5 mph - N/A   Clear
6:54 PM 30.2 °F - 15.8 °F 55% 29.79 in 10.0 mi Calm Calm - N/A   Clear
7:14 PM 30.2 °F 20.2 °F 10.4 °F 44% 29.80 in 10.0 mi NW 12.7 mph - N/A   Clear
7:34 PM 28.4 °F 18.0 °F 10.4 °F 47% 29.81 in 10.0 mi NW 12.7 mph - N/A   Clear
7:54 PM 26.6 °F 16.2 °F 10.4 °F 51% 29.82 in 10.0 mi NW 11.5 mph - N/A   Clear
8:14 PM 26.6 °F 15.2 °F 10.4 °F 51% 29.83 in 10.0 mi NNW 13.8 mph 17.3 mph N/A   Clear
8:34 PM 24.8 °F 14.0 °F 10.4 °F 54% 29.84 in 10.0 mi NNW 11.5 mph - N/A   Clear
8:54 PM 23.0 °F 10.1 °F 8.6 °F 54% 29.85 in 10.0 mi NW 15.0 mph 20.7 mph N/A   Clear
9:14 PM 21.2 °F 8.9 °F 8.6 °F 58% 29.86 in 10.0 mi NNW 12.7 mph - N/A   Clear
9:34 PM 21.2 °F 8.3 °F 8.6 °F 58% 29.86 in 10.0 mi NW 13.8 mph 20.7 mph N/A   Clear
9:53 PM 21.2 °F 9.5 °F 8.6 °F 58% 29.87 in 10.0 mi NNW 11.5 mph 18.4 mph N/A   Clear
10:14 PM 19.4 °F 8.6 °F 8.6 °F 63% 29.88 in 10.0 mi NW 9.2 mph - N/A   Clear
10:34 PM 17.6 °F 5.0 °F 6.8 °F 63% 29.88 in 10.0 mi NW 11.5 mph - N/A   Clear
10:54 PM 17.6 °F 5.0 °F 6.8 °F 63% 29.89 in 10.0 mi NW 11.5 mph - N/A   Clear
11:14 PM 17.6 °F 5.0 °F 6.8 °F 63% 29.90 in 10.0 mi NNW 11.5 mph - N/A   Clear
11:34 PM 15.8 °F 2.7 °F 5.0 °F 62% 29.91 in 10.0 mi NW 11.5 mph - N/A   Clear
11:54 PM 15.8 °F 2.7 °F 3.2 °F 58% 29.92 in 10.0 mi NW 11.5 mph - N/A   Clear